createdAt,value
2022-08-25T00:01:58.425Z,100.00
2022-08-25T00:06:00.567Z,100.00
2022-08-25T00:10:03.187Z,100.00
2022-08-25T00:14:09.774Z,100.00
2022-08-25T00:18:19.809Z,100.00
2022-08-25T00:22:22.667Z,100.00
2022-08-25T00:26:26.486Z,100.00
2022-08-25T00:30:28.557Z,100.00
2022-08-25T00:34:37.579Z,100.00
2022-08-25T00:38:42.276Z,100.00
2022-08-25T00:42:44.685Z,100.00
2022-08-25T00:46:50.643Z,100.00
2022-08-25T00:50:52.830Z,100.00
2022-08-25T00:55:10.122Z,100.00
2022-08-25T00:59:13.633Z,100.00
2022-08-25T01:03:20.312Z,100.00
2022-08-25T01:07:24.328Z,100.00
2022-08-25T01:11:28.227Z,100.00
2022-08-25T01:15:31.069Z,100.00
2022-08-25T01:19:33.682Z,100.00
2022-08-25T01:23:35.835Z,100.00
2022-08-25T01:27:37.865Z,100.00
2022-08-25T01:31:42.281Z,100.00
2022-08-25T01:35:45.445Z,100.00
2022-08-25T01:39:48.295Z,100.00
2022-08-25T01:43:50.398Z,100.00
2022-08-25T01:47:52.825Z,100.00
2022-08-25T01:52:22.598Z,100.00
2022-08-25T01:56:25.084Z,100.00
2022-08-25T02:00:27.204Z,100.00
2022-08-25T02:04:33.141Z,100.00
2022-08-25T02:08:36.695Z,100.00
2022-08-25T02:12:39.643Z,100.00
2022-08-25T02:16:45.713Z,100.00
2022-08-25T02:20:48.967Z,100.00
2022-08-25T02:24:51.322Z,100.00
2022-08-25T02:28:54.450Z,100.00
2022-08-25T02:32:56.574Z,100.00
2022-08-25T02:36:58.803Z,100.00
2022-08-25T02:41:09.376Z,100.00
2022-08-25T02:45:11.739Z,100.00
2022-08-25T02:49:13.937Z,100.00
2022-08-25T02:53:16.262Z,100.00
2022-08-25T02:57:18.436Z,100.00
2022-08-25T03:01:22.062Z,100.00
2022-08-25T03:05:31.998Z,100.00
2022-08-25T03:09:34.487Z,100.00
2022-08-25T03:13:41.118Z,100.00
2022-08-25T03:17:47.674Z,100.00
2022-08-25T03:21:56.098Z,100.00
2022-08-25T03:26:36.949Z,100.00
2022-08-25T03:30:39.211Z,100.00
2022-08-25T03:34:41.724Z,100.00
2022-08-25T03:38:43.787Z,100.00
2022-08-25T03:42:46.763Z,100.00
2022-08-25T03:46:51.757Z,100.00
2022-08-25T03:50:54.901Z,100.00
2022-08-25T03:54:56.977Z,100.00
2022-08-25T03:59:00.690Z,100.00
2022-08-25T04:03:02.759Z,100.00
2022-08-25T04:07:05.511Z,100.00
2022-08-25T04:11:15.590Z,100.00
2022-08-25T04:15:18.902Z,100.00
2022-08-25T04:19:21.636Z,100.00
2022-08-25T04:23:24.108Z,100.00
2022-08-25T04:27:26.375Z,100.00
2022-08-25T04:31:30.053Z,100.00
2022-08-25T04:35:32.438Z,100.00
2022-08-25T04:39:34.869Z,100.00
2022-08-25T04:43:38.585Z,100.00
2022-08-25T04:47:41.365Z,100.00
2022-08-25T04:51:43.575Z,100.00
2022-08-25T04:55:48.525Z,100.00
2022-08-25T04:59:51.047Z,100.00
2022-08-25T05:03:56.645Z,100.00
2022-08-25T05:07:58.741Z,100.00
2022-08-25T05:12:02.271Z,100.00
2022-08-25T05:16:05.903Z,100.00
2022-08-25T05:20:12.235Z,100.00
2022-08-25T05:24:14.230Z,100.00
2022-08-25T05:28:17.312Z,100.00
2022-08-25T05:32:19.326Z,100.00
2022-08-25T05:36:22.858Z,100.00
2022-08-25T05:40:25.648Z,100.00
2022-08-25T05:44:28.075Z,100.00
2022-08-25T05:48:30.179Z,100.00
2022-08-25T05:52:33.056Z,100.00
2022-08-25T05:56:35.413Z,100.00
2022-08-25T06:00:39.485Z,100.00
2022-08-25T06:04:41.720Z,100.00
2022-08-25T06:08:45.201Z,100.00
2022-08-25T06:12:47.702Z,100.00
2022-08-25T06:16:52.147Z,100.00
2022-08-25T06:20:54.197Z,100.00
2022-08-25T06:24:56.516Z,100.00
2022-08-25T06:28:58.675Z,100.00
2022-08-25T06:33:01.118Z,100.00
2022-08-25T06:37:06.358Z,100.00
2022-08-25T06:41:10.983Z,100.00
2022-08-25T06:45:13.238Z,100.00
2022-08-25T06:49:17.573Z,100.00
2022-08-25T06:53:19.618Z,100.00
2022-08-25T06:57:22.280Z,100.00
2022-08-25T07:01:27.378Z,100.00
2022-08-25T07:05:45.195Z,100.00
2022-08-25T07:09:47.586Z,100.00
2022-08-25T07:13:50.771Z,100.00
2022-08-25T07:17:52.799Z,100.00
2022-08-25T07:21:55.085Z,100.00
2022-08-25T07:25:57.690Z,100.00
2022-08-25T07:30:00.093Z,100.00
2022-08-25T07:34:22.084Z,100.00
2022-08-25T07:38:24.458Z,100.00
2022-08-25T07:42:27.880Z,100.00
2022-08-25T07:46:30.446Z,100.00
2022-08-25T07:50:34.051Z,100.00
2022-08-25T07:54:38.081Z,100.00
2022-08-25T07:58:41.780Z,100.00
2022-08-25T08:02:44.350Z,100.00
2022-08-25T08:06:46.744Z,100.00
2022-08-25T08:11:05.553Z,100.00
2022-08-25T08:15:10.573Z,100.00
2022-08-25T08:19:13.558Z,100.00
2022-08-25T08:23:17.403Z,100.00
2022-08-25T08:27:19.746Z,100.00
2022-08-25T08:31:27.672Z,100.00
2022-08-25T08:35:30.030Z,100.00
2022-08-25T08:39:32.263Z,100.00
2022-08-25T08:43:37.189Z,100.00
2022-08-25T08:48:03.445Z,100.00
2022-08-25T08:52:11.784Z,100.00
2022-08-25T08:56:19.762Z,100.00
2022-08-25T09:00:22.131Z,100.00
2022-08-25T09:04:34.499Z,100.00
2022-08-25T09:08:44.654Z,100.00
2022-08-25T09:13:12.006Z,100.00
2022-08-25T09:17:24.452Z,100.00
2022-08-25T09:21:40.286Z,100.00
2022-08-25T09:25:56.999Z,100.00
2022-08-25T09:30:32.788Z,100.00
2022-08-25T09:34:36.121Z,100.00
2022-08-25T09:38:38.965Z,100.00
2022-08-25T09:42:58.098Z,95.88
2022-08-25T09:47:02.097Z,88.02
2022-08-25T09:51:42.471Z,73.65
2022-08-25T09:55:59.943Z,56.94
2022-08-25T10:00:10.105Z,56.41
2022-08-25T10:04:18.955Z,55.71
2022-08-25T10:08:35.938Z,53.94
2022-08-25T10:12:42.341Z,49.30
2022-08-25T10:16:47.309Z,45.61
2022-08-25T10:21:08.901Z,52.54
2022-08-25T10:25:16.909Z,48.61
2022-08-25T10:29:46.491Z,39.50
2022-08-25T10:34:06.388Z,38.55
2022-08-25T10:38:23.890Z,45.17
2022-08-25T10:43:00.688Z,40.85
2022-08-25T10:47:34.843Z,43.23
2022-08-25T10:51:46.840Z,43.69
2022-08-25T10:56:21.365Z,44.60
2022-08-25T11:00:47.703Z,47.28
2022-08-25T11:04:55.999Z,37.37
2022-08-25T11:09:04.412Z,40.19
2022-08-25T11:13:46.650Z,41.39
2022-08-25T11:17:56.050Z,40.89
2022-08-25T11:22:36.229Z,38.12
2022-08-25T11:26:59.805Z,37.48
2022-08-25T11:31:03.453Z,38.57
2022-08-25T11:35:14.953Z,37.76
2022-08-25T11:39:24.584Z,37.86
2022-08-25T11:44:03.986Z,35.80
2022-08-25T11:48:51.635Z,33.58
2022-08-25T11:53:03.119Z,35.97
2022-08-25T11:57:18.519Z,36.89
2022-08-25T12:01:39.258Z,37.87
2022-08-25T12:05:42.499Z,38.15
2022-08-25T12:09:50.586Z,36.18
2022-08-25T12:13:52.692Z,39.43
2022-08-25T12:18:09.754Z,38.41
2022-08-25T12:22:13.659Z,34.97
2022-08-25T12:26:15.893Z,38.25
2022-08-25T12:30:46.437Z,39.15
2022-08-25T12:35:02.907Z,34.12
2022-08-25T12:39:24.611Z,32.10
2022-08-25T12:43:37.804Z,33.01
2022-08-25T12:47:44.756Z,35.96
2022-08-25T12:51:59.251Z,36.57
2022-08-25T12:56:28.602Z,36.03
2022-08-25T13:01:32.871Z,33.40
2022-08-25T13:06:08.926Z,31.56
2022-08-25T13:10:13.846Z,35.22
2022-08-25T13:14:26.769Z,37.31
2022-08-25T13:18:32.718Z,34.80
2022-08-25T13:22:36.019Z,36.42
2022-08-25T13:26:48.418Z,36.56
2022-08-25T13:31:28.371Z,36.99
2022-08-25T13:35:33.129Z,36.40
2022-08-25T13:39:55.388Z,35.75
2022-08-25T13:43:59.786Z,35.58
2022-08-25T13:48:03.782Z,35.39
2022-08-25T13:52:19.252Z,37.29
2022-08-25T13:56:40.685Z,36.80
2022-08-25T14:01:23.469Z,35.77
2022-08-25T14:05:36.116Z,36.49
2022-08-25T14:09:52.145Z,36.29
2022-08-25T14:14:14.582Z,36.18
2022-08-25T14:18:26.759Z,37.31
2022-08-25T14:22:29.607Z,39.54
2022-08-25T14:26:31.848Z,38.76
2022-08-25T14:30:43.448Z,39.70
2022-08-25T14:34:48.327Z,39.84
2022-08-25T14:38:54.538Z,36.84
2022-08-25T14:42:56.867Z,35.70
2022-08-25T14:47:02.055Z,37.26
2022-08-25T14:51:07.094Z,40.20
2022-08-25T14:55:10.707Z,40.67
2022-08-25T14:59:12.951Z,37.91
2022-08-25T15:03:19.292Z,35.86
2022-08-25T15:07:41.311Z,35.13
2022-08-25T15:11:50.556Z,36.22
2022-08-25T15:15:53.537Z,38.76
2022-08-25T15:19:55.962Z,39.43
2022-08-25T15:24:00.486Z,40.79
2022-08-25T15:28:07.466Z,36.89
2022-08-25T15:32:12.687Z,33.42
2022-08-25T15:36:30.665Z,32.11
2022-08-25T15:40:34.545Z,32.27
2022-08-25T15:44:37.137Z,28.75
2022-08-25T15:48:41.515Z,29.21
2022-08-25T15:52:48.618Z,30.65
2022-08-25T15:56:51.775Z,32.38
2022-08-25T16:00:56.244Z,29.99
2022-08-25T16:04:58.834Z,31.21
2022-08-25T16:09:01.640Z,31.02
2022-08-25T16:13:04.965Z,31.34
2022-08-25T16:17:07.951Z,36.91
2022-08-25T16:21:16.847Z,40.48
2022-08-25T16:25:19.365Z,42.90
2022-08-25T16:29:21.987Z,43.67
2022-08-25T16:33:24.666Z,47.50
2022-08-25T16:37:28.083Z,44.42
2022-08-25T16:41:34.641Z,48.23
2022-08-25T16:45:38.622Z,51.69
2022-08-25T16:49:42.425Z,58.43
2022-08-25T16:54:05.816Z,61.30
2022-08-25T16:58:13.631Z,68.68
2022-08-25T17:02:16.102Z,71.49
2022-08-25T17:06:21.492Z,81.97
2022-08-25T17:10:23.541Z,100.00
2022-08-25T17:14:29.016Z,100.00
2022-08-25T17:18:31.495Z,100.00
2022-08-25T17:22:33.756Z,100.00
2022-08-25T17:26:39.724Z,100.00
2022-08-25T17:30:43.727Z,100.00
2022-08-25T17:34:46.327Z,100.00
2022-08-25T17:38:48.698Z,100.00
2022-08-25T17:42:51.421Z,100.00
2022-08-25T17:46:54.566Z,100.00
2022-08-25T17:51:00.415Z,100.00
2022-08-25T17:55:02.846Z,100.00
2022-08-25T17:59:05.606Z,100.00
2022-08-25T18:03:08.866Z,100.00
2022-08-25T18:07:12.996Z,100.00
2022-08-25T18:11:15.405Z,100.00
2022-08-25T18:15:20.948Z,100.00
2022-08-25T18:19:23.157Z,100.00
2022-08-25T18:23:25.322Z,100.00
2022-08-25T18:27:28.817Z,100.00
2022-08-25T18:31:31.889Z,100.00
2022-08-25T18:35:34.711Z,100.00
2022-08-25T18:39:55.594Z,100.00
2022-08-25T18:43:57.828Z,100.00
2022-08-25T18:48:00.516Z,100.00
2022-08-25T18:52:04.876Z,100.00
2022-08-25T18:56:09.325Z,100.00
2022-08-25T19:00:13.423Z,100.00
2022-08-25T19:04:15.585Z,100.00
2022-08-25T19:08:21.827Z,100.00
2022-08-25T19:12:24.074Z,100.00
2022-08-25T19:16:38.832Z,100.00
2022-08-25T19:20:42.788Z,100.00
2022-08-25T19:24:45.878Z,100.00
2022-08-25T19:28:49.344Z,100.00
2022-08-25T19:32:52.795Z,100.00
2022-08-25T19:36:56.174Z,100.00
2022-08-25T19:40:59.863Z,100.00
2022-08-25T19:45:02.105Z,100.00
2022-08-25T19:49:17.450Z,100.00
2022-08-25T19:53:19.786Z,100.00
2022-08-25T19:57:28.413Z,100.00
2022-08-25T20:01:47.575Z,100.00
2022-08-25T20:05:52.046Z,100.00
2022-08-25T20:09:55.678Z,100.00
2022-08-25T20:14:03.509Z,100.00
2022-08-25T20:18:06.805Z,100.00
2022-08-25T20:22:11.255Z,100.00
2022-08-25T20:26:19.675Z,100.00
2022-08-25T20:30:28.435Z,100.00
2022-08-25T20:34:30.685Z,100.00
2022-08-25T20:38:35.279Z,100.00
2022-08-25T20:42:40.535Z,100.00
2022-08-25T20:46:43.105Z,100.00
2022-08-25T20:50:45.824Z,100.00
2022-08-25T20:55:00.100Z,100.00
2022-08-25T20:59:04.198Z,100.00
2022-08-25T21:03:12.951Z,100.00
2022-08-25T21:07:15.035Z,100.00
2022-08-25T21:11:22.848Z,100.00
2022-08-25T21:15:25.415Z,100.00
2022-08-25T21:19:30.063Z,100.00
2022-08-25T21:23:32.610Z,100.00
2022-08-25T21:27:34.917Z,100.00
2022-08-25T21:31:37.087Z,100.00
2022-08-25T21:35:42.885Z,100.00
2022-08-25T21:39:45.025Z,100.00
2022-08-25T21:43:47.970Z,100.00
2022-08-25T21:47:50.233Z,100.00
2022-08-25T21:52:00.401Z,100.00
2022-08-25T21:56:06.838Z,100.00
2022-08-25T22:00:09.715Z,100.00
2022-08-25T22:04:14.675Z,100.00
2022-08-25T22:08:17.621Z,100.00
2022-08-25T22:12:21.885Z,100.00
2022-08-25T22:16:24.967Z,100.00
2022-08-25T22:20:27.125Z,100.00
2022-08-25T22:24:31.287Z,100.00
2022-08-25T22:28:33.321Z,100.00
2022-08-25T22:32:35.757Z,100.00
2022-08-25T22:36:39.162Z,100.00
2022-08-25T22:40:41.972Z,100.00
2022-08-25T22:44:44.207Z,100.00
2022-08-25T22:48:46.633Z,100.00
2022-08-25T22:52:52.722Z,100.00
2022-08-25T22:56:54.983Z,100.00
2022-08-25T23:00:57.834Z,100.00
2022-08-25T23:05:02.075Z,100.00
2022-08-25T23:09:07.455Z,100.00
2022-08-25T23:13:09.735Z,100.00
2022-08-25T23:17:17.527Z,100.00
2022-08-25T23:21:41.321Z,100.00
2022-08-25T23:25:44.650Z,100.00
2022-08-25T23:29:49.061Z,100.00
2022-08-25T23:33:51.625Z,100.00
2022-08-25T23:37:53.946Z,100.00
2022-08-25T23:42:01.986Z,100.00
2022-08-25T23:46:10.535Z,100.00
2022-08-25T23:50:14.733Z,100.00
2022-08-25T23:54:19.605Z,100.00
2022-08-25T23:58:22.232Z,100.00
